Uxbridge, Canada
Current Conditions -  °F | °C
As of 3:00 AM on Tuesday 27 Jan 2015 (Local Time) from CYKZ Reporting Station
Light Snow Light Snow  
Wind Chill: -18°   Ceiling: 1700
Heat Index: -12°   Visibility: 1.7mi
Dew Point: -16°   Wind: 7mph
Humidity: 73%   Direction: 360°N
Pressure: 29.99"   Gusts: NA
Location:  44.1°N, 79.12°W
Report Text: CYKZ 270800Z 36006KT 1 3/4SM -SN VV017 M12/M16 A2999 RMK SN8SLP170
Loading
Personal Weather Stations






























Interactive Weather Map New forecast layout! Learn more

10-Day Weather Forecast

Advertisements
Track Severe Weather on mobile